KPOY

Powell Municipal Airport

Powell, Wyoming, USA
METAR KPOY 260415Z AUTO 27006KT 10SM CLR 16/06 A2992 RMK AO2
Observed Flight Rules
May-26 @ 04:15 UTC (5 minutes ago) Visual Flight Rules
Wind Visibility Clouds
270° at 6 knots 10 miles
  • Clear skies
Temperatures Readings
Current 16°C / 61°F
Dewpoint 6°C / 43°F
Humidity 52%
Altimeter 29.92" Hg
Pressure 1013 hPa
Elevation 1552
METAR KPOY 260415Z AUTO 27006KT 10SM CLR 16/06 A2992 RMK AO2
Observed Flight Rules
May-26 @ 04:15 UTC
(5 minutes ago)
VFR
Wind Visibility
270° at 6 knots 10 miles
Clouds
  • Clear skies
Temperature Dewpoint
16°C / 61°F 6°C / 43°F
Humidity Altimeter Pressure
52% 29.92" Hg 1013 hPa